Time;durP1;ratioP1;P1;durP2;ratioP2;P2;SDS_P1;SDS_P2;PMS_P1;PMS_P2;Temp;Humidity;BMP_temperature;BMP_pressure;BME280_temperature;BME280_humidity;BME280_pressure;Samples;Min_cycle;Max_cycle;Signal;HPM_P1;HPM_P2
2022/10/03 00:00:35;;;;;;;6.17;1.53;;;;;;;14.68;64.09;101926.13;4908299;28;97099;-51
2022/10/03 00:03:32;;;;;;;12.50;1.50;;;;;;;14.67;64.14;101930.16;4910937;28;97112;-51
2022/10/03 00:06:21;;;;;;;7.30;1.30;;;;;;;14.67;64.41;101919.09;4884142;28;97169;-51
2022/10/03 00:09:02;;;;;;;4.10;1.03;;;;;;;14.69;64.49;101920.13;4910374;28;97182;-50
2022/10/03 00:11:35;;;;;;;4.70;1.00;;;;;;;14.71;64.35;101939.00;4910393;28;101798;-51
2022/10/03 00:14:36;;;;;;;5.20;1.37;;;;;;;14.71;64.41;101937.00;4909401;28;98293;-51
2022/10/03 00:17:43;;;;;;;4.80;1.10;;;;;;;14.70;64.35;101937.50;4907073;28;97146;-51
2022/10/03 00:20:18;;;;;;;5.90;1.23;;;;;;;14.71;64.44;101930.69;4910722;28;97117;-51
2022/10/03 00:23:04;;;;;;;5.60;1.00;;;;;;;14.73;64.15;101942.06;4908302;28;97576;-50
2022/10/03 00:25:41;;;;;;;8.10;1.40;;;;;;;14.71;64.17;101944.56;4906105;28;101631;-51
2022/10/03 00:28:37;;;;;;;6.17;1.20;;;;;;;14.71;64.35;101950.09;4908346;28;96773;-51
2022/10/03 00:31:21;;;;;;;7.93;1.33;;;;;;;14.68;64.33;101948.28;4912121;28;97473;-51
2022/10/03 00:34:22;;;;;;;4.03;1.00;;;;;;;14.62;64.46;101953.78;4908746;28;101902;-48
2022/10/03 00:37:11;;;;;;;6.63;0.97;;;;;;;14.60;64.36;101961.06;4908856;28;101335;-51
2022/10/03 00:39:55;;;;;;;2.00;1.23;;;;;;;14.57;64.36;101962.78;4910427;28;97509;-51
2022/10/03 00:42:39;;;;;;;10.40;1.50;;;;;;;14.55;64.28;101962.53;4911860;28;97429;-52
2022/10/03 00:45:31;;;;;;;6.63;1.10;;;;;;;14.54;64.46;101969.34;4910858;28;97484;-51
2022/10/03 00:48:08;;;;;;;2.37;1.00;;;;;;;14.54;64.60;101963.03;4898381;28;101627;-51
2022/10/03 00:50:55;;;;;;;4.40;1.63;;;;;;;14.54;64.62;101972.09;4909932;28;96904;-51
2022/10/03 00:53:31;;;;;;;8.87;1.27;;;;;;;14.55;64.49;101973.59;4910602;28;97346;-51
2022/10/03 00:56:15;;;;;;;8.80;1.43;;;;;;;14.56;64.86;101966.84;4908517;28;100436;-51
2022/10/03 00:58:50;;;;;;;4.50;1.13;;;;;;;14.59;64.68;101967.88;4909352;28;102712;-52
2022/10/03 01:01:28;;;;;;;5.63;1.00;;;;;;;14.59;64.66;101968.59;4908792;28;97229;-52
2022/10/03 01:04:05;;;;;;;3.20;1.00;;;;;;;14.57;64.62;101973.88;4907205;28;97225;-51
2022/10/03 01:06:37;;;;;;;4.00;1.00;;;;;;;14.58;64.52;101988.50;4906822;28;97667;-51
2022/10/03 01:09:21;;;;;;;2.77;0.80;;;;;;;14.58;64.64;101982.94;4909268;28;97647;-50
2022/10/03 01:12:14;;;;;;;12.60;1.50;;;;;;;14.58;64.94;101991.25;4908343;28;97156;-51
2022/10/03 01:15:04;;;;;;;4.57;1.23;;;;;;;14.57;64.88;101976.66;4910166;28;97976;-51
2022/10/03 01:17:48;;;;;;;4.03;1.13;;;;;;;14.60;64.66;101989.53;4911137;28;100653;-51
2022/10/03 01:20:50;;;;;;;3.80;0.90;;;;;;;14.58;65.00;101986.50;4908749;28;98043;-52
2022/10/03 01:23:41;;;;;;;7.23;1.20;;;;;;;14.55;65.09;101976.38;4909419;28;97284;-51
2022/10/03 01:26:48;;;;;;;4.20;0.80;;;;;;;14.57;65.08;101984.94;4908396;28;97092;-51
2022/10/03 01:32:07;;;;;;;6.00;1.23;;;;;;;14.60;64.69;101988.75;4909947;28;101178;-51
2022/10/03 01:34:45;;;;;;;6.23;1.40;;;;;;;14.61;64.87;101985.50;4910765;28;96894;-51
2022/10/03 01:37:28;;;;;;;6.10;1.13;;;;;;;14.61;65.02;101993.06;4910895;28;97187;-51
2022/10/03 01:40:18;;;;;;;7.00;1.20;;;;;;;14.63;64.92;102001.66;4912369;28;97476;-50
2022/10/03 01:43:12;;;;;;;6.60;1.50;;;;;;;14.62;65.01;101991.81;4908437;28;101182;-51
2022/10/03 01:45:46;;;;;;;5.40;1.00;;;;;;;14.59;64.76;101999.06;4910703;28;97320;-51
2022/10/03 01:48:20;;;;;;;9.30;1.70;;;;;;;14.59;64.80;102003.88;4911042;28;97195;-50
2022/10/03 01:51:10;;;;;;;4.47;1.33;;;;;;;14.60;65.04;102008.16;4910130;28;101830;-51
2022/10/03 01:53:58;;;;;;;4.23;1.67;;;;;;;14.58;65.08;102005.88;4907165;28;102195;-51
2022/10/03 01:56:33;;;;;;;5.73;1.30;;;;;;;14.59;64.90;102007.38;4908685;28;97082;-49
2022/10/03 01:59:05;;;;;;;7.50;1.00;;;;;;;14.59;64.87;102012.19;4909874;28;97040;-51
2022/10/03 02:01:38;;;;;;;4.47;1.30;;;;;;;14.59;64.83;102014.97;4908405;28;97396;-51
2022/10/03 02:04:41;;;;;;;14.23;1.83;;;;;;;14.58;65.11;102018.97;4912836;28;96827;-51
2022/10/03 02:07:33;;;;;;;6.77;1.57;;;;;;;14.55;64.97;102012.38;4906187;28;96966;-49
2022/10/03 02:10:05;;;;;;;5.23;1.33;;;;;;;14.54;64.91;102023.94;4906733;28;97093;-51
2022/10/03 02:12:40;;;;;;;7.27;1.07;;;;;;;14.55;65.03;102017.91;4908569;28;103240;-51
2022/10/03 02:15:30;;;;;;;13.40;1.50;;;;;;;14.56;65.17;102022.22;4910533;28;101653;-51
2022/10/03 02:18:11;;;;;;;8.23;1.03;;;;;;;14.57;64.76;102029.28;4905832;28;96972;-50
2022/10/03 02:21:14;;;;;;;8.40;1.63;;;;;;;14.55;65.20;102029.00;4910796;28;96884;-51
2022/10/03 02:23:44;;;;;;;8.77;1.30;;;;;;;14.52;64.90;102027.22;4902790;28;101972;-51
2022/10/03 02:26:28;;;;;;;3.70;1.23;;;;;;;14.51;65.29;102030.47;4906131;28;97142;-51
2022/10/03 02:29:11;;;;;;;5.23;1.30;;;;;;;14.50;65.11;102043.56;4905995;28;96915;-51
2022/10/03 02:32:04;;;;;;;4.93;0.90;;;;;;;14.48;65.01;102046.03;4910891;28;96986;-51
2022/10/03 02:35:09;;;;;;;7.17;1.57;;;;;;;14.49;65.17;102044.03;4894187;28;102057;-50
2022/10/03 02:37:40;;;;;;;7.33;1.17;;;;;;;14.45;64.94;102049.03;4906347;28;100121;-51
2022/10/03 02:40:27;;;;;;;8.23;1.10;;;;;;;14.46;65.03;102047.78;4913661;28;96969;-48
2022/10/03 02:43:32;;;;;;;9.43;1.67;;;;;;;14.42;65.15;102058.28;4910865;28;96869;-48
2022/10/03 02:46:06;;;;;;;3.53;0.87;;;;;;;14.42;64.97;102053.50;4912561;28;100667;-51
2022/10/03 02:48:34;;;;;;;3.63;0.97;;;;;;;14.39;65.01;102062.81;4909367;28;103023;-51
2022/10/03 02:51:38;;;;;;;7.13;1.20;;;;;;;14.36;65.24;102063.75;4911889;28;97226;-51
2022/10/03 02:54:25;;;;;;;3.70;1.30;;;;;;;14.35;64.92;102065.00;4903801;28;97038;-51
2022/10/03 02:57:16;;;;;;;3.40;0.97;;;;;;;14.31;64.73;102069.25;4907558;28;102425;-50
2022/10/03 03:00:03;;;;;;;5.57;1.10;;;;;;;14.28;64.96;102068.16;4910536;28;102133;-48
2022/10/03 03:02:40;;;;;;;4.20;1.07;;;;;;;14.27;64.99;102069.41;4909420;28;96945;-51
2022/10/03 03:05:11;;;;;;;8.47;1.40;;;;;;;14.28;65.06;102071.69;4911361;28;96874;-51
2022/10/03 03:08:03;;;;;;;5.30;1.13;;;;;;;14.31;65.21;102075.53;4909438;28;97193;-51
2022/10/03 03:11:06;;;;;;;6.80;1.30;;;;;;;14.31;65.25;102072.00;4910101;28;101865;-51
2022/10/03 03:13:55;;;;;;;6.17;0.97;;;;;;;14.30;65.00;102064.94;4908213;28;97292;-50
2022/10/03 03:16:33;;;;;;;4.93;1.53;;;;;;;14.31;65.03;102069.97;4913062;28;97007;-51
2022/10/03 03:18:58;;;;;;;7.60;1.07;;;;;;;14.32;64.92;102062.44;4909832;28;100750;-50
2022/10/03 03:21:42;;;;;;;4.40;1.20;;;;;;;14.33;65.00;102070.25;4909879;28;97250;-51
2022/10/03 03:24:07;;;;;;;6.43;1.83;;;;;;;14.35;64.98;102078.09;4907033;28;96774;-51
2022/10/03 03:26:42;;;;;;;7.37;1.23;;;;;;;14.35;64.99;102091.94;4910565;28;97718;-50
2022/10/03 03:29:23;;;;;;;7.10;1.57;;;;;;;14.35;64.98;102075.34;4909997;28;101167;-51
2022/10/03 03:32:25;;;;;;;4.60;1.20;;;;;;;14.33;65.20;102080.59;4909148;28;99988;-50
2022/10/03 03:35:21;;;;;;;4.77;1.20;;;;;;;14.31;65.10;102077.56;4909218;28;97026;-49
2022/10/03 03:38:00;;;;;;;2.20;0.97;;;;;;;14.28;64.96;102090.31;4908022;28;97099;-51
2022/10/03 03:41:01;;;;;;;6.90;1.43;;;;;;;14.23;65.20;102088.22;4908724;28;100741;-49
2022/10/03 03:43:56;;;;;;;7.77;1.00;;;;;;;14.19;64.82;102096.75;4907612;28;101327;-53
2022/10/03 03:46:59;;;;;;;5.10;1.10;;;;;;;14.12;64.82;102094.38;4911281;28;97117;-51
2022/10/03 03:49:46;;;;;;;2.90;0.83;;;;;;;14.05;64.94;102089.25;4907582;28;97155;-51
2022/10/03 03:52:20;;;;;;;5.73;1.20;;;;;;;14.03;64.94;102090.94;4909601;28;102695;-51
2022/10/03 03:55:07;;;;;;;13.17;1.50;;;;;;;14.03;65.05;102080.66;4907060;28;97366;-51
2022/10/03 03:57:41;;;;;;;7.10;0.93;;;;;;;14.01;64.96;102074.84;4908406;28;96918;-48
2022/10/03 04:00:19;;;;;;;1.63;0.93;;;;;;;13.99;64.88;102076.56;4912020;28;97015;-48
2022/10/03 04:03:21;;;;;;;8.87;1.00;;;;;;;13.90;64.81;102082.22;4907518;28;103039;-49
2022/10/03 04:05:55;;;;;;;4.67;0.70;;;;;;;13.85;64.83;102086.41;4865348;28;101744;-54
2022/10/03 04:08:44;;;;;;;5.90;1.43;;;;;;;13.81;64.76;102085.84;4903633;28;96880;-51
2022/10/03 04:11:28;;;;;;;2.13;0.80;;;;;;;13.76;64.90;102088.53;4909708;28;97422;-51
2022/10/03 04:14:31;;;;;;;2.47;0.80;;;;;;;13.74;64.94;102091.03;4909357;28;101470;-51
2022/10/03 04:20:35;;;;;;;4.63;0.97;;;;;;;13.67;65.06;102088.66;4908511;28;97315;-51
2022/10/03 04:23:24;;;;;;;3.10;0.87;;;;;;;13.64;64.79;102098.66;4912443;28;97067;-49
2022/10/03 04:26:14;;;;;;;7.43;1.33;;;;;;;13.60;64.94;102103.63;4907404;28;103148;-51
2022/10/03 04:29:22;;;;;;;1.73;0.73;;;;;;;13.53;64.84;102099.25;4903461;28;100185;-51
2022/10/03 04:32:08;;;;;;;23.63;1.77;;;;;;;13.51;64.83;102107.25;4910219;28;97197;-51
2022/10/03 04:34:57;;;;;;;7.20;0.93;;;;;;;13.50;64.90;102097.44;4906858;28;96830;-48
2022/10/03 04:37:33;;;;;;;1.63;1.00;;;;;;;13.50;64.83;102096.66;4907454;28;101968;-50
2022/10/03 04:39:58;;;;;;;2.43;0.77;;;;;;;13.46;64.80;102094.09;4908030;28;100041;-51
2022/10/03 04:42:36;;;;;;;6.43;1.00;;;;;;;13.45;64.71;102108.41;4910554;28;96743;-49
2022/10/03 04:45:17;;;;;;;9.00;1.00;;;;;;;13.42;64.86;102104.59;4908395;28;96946;-51
2022/10/03 04:48:04;;;;;;;6.93;1.07;;;;;;;13.43;64.95;102099.81;4906306;28;97563;-51
2022/10/03 04:51:00;;;;;;;7.63;1.30;;;;;;;13.41;65.08;102103.03;4909216;28;101419;-51
2022/10/03 04:53:49;;;;;;;4.20;0.90;;;;;;;13.41;64.98;102113.38;4909158;28;97146;-51
2022/10/03 04:56:38;;;;;;;4.00;1.00;;;;;;;13.41;65.09;102119.63;4900610;28;97237;-51
2022/10/03 04:59:25;;;;;;;6.53;1.30;;;;;;;13.40;64.89;102123.66;4909622;28;100464;-51
2022/10/03 05:02:11;;;;;;;5.30;1.10;;;;;;;13.39;64.99;102124.88;4907472;28;97323;-50
2022/10/03 05:04:59;;;;;;;3.17;0.90;;;;;;;13.40;65.23;102123.66;4909990;28;96861;-50
2022/10/03 05:07:43;;;;;;;8.83;1.00;;;;;;;13.39;64.91;102133.16;4908450;28;97425;-51
2022/10/03 05:10:39;;;;;;;3.83;1.00;;;;;;;13.40;65.28;102128.41;4906397;28;100801;-51
2022/10/03 05:13:15;;;;;;;6.17;1.20;;;;;;;13.40;64.99;102128.41;4908398;28;101338;-51
2022/10/03 05:15:48;;;;;;;4.70;0.90;;;;;;;13.39;65.03;102157.28;4909549;28;97048;-50
2022/10/03 05:18:46;;;;;;;3.90;1.17;;;;;;;13.34;65.16;102138.63;4908879;28;96828;-51
2022/10/03 05:21:26;;;;;;;5.90;1.17;;;;;;;13.34;65.15;102147.69;4903562;28;100532;-50
2022/10/03 05:23:51;;;;;;;3.17;0.70;;;;;;;13.32;65.02;102144.59;4908530;28;101509;-51
2022/10/03 05:26:33;;;;;;;5.30;0.83;;;;;;;13.33;65.22;102140.59;4902347;28;97168;-51
2022/10/03 05:29:26;;;;;;;4.33;0.87;;;;;;;13.32;65.50;102136.31;4906511;28;98621;-50
2022/10/03 05:32:05;;;;;;;6.03;1.13;;;;;;;13.35;65.09;102143.66;4907544;28;97381;-51
2022/10/03 05:35:01;;;;;;;0.93;0.60;;;;;;;13.35;65.22;102143.66;4904242;28;101052;-50
2022/10/03 05:37:40;;;;;;;8.43;1.07;;;;;;;13.34;65.34;102149.66;4901357;28;96778;-49
2022/10/03 05:40:25;;;;;;;3.90;1.07;;;;;;;13.31;65.27;102153.38;4908218;28;97236;-51
2022/10/03 05:42:51;;;;;;;2.80;0.80;;;;;;;13.34;65.18;102161.50;4908190;28;101855;-51
2022/10/03 05:45:41;;;;;;;6.10;1.27;;;;;;;13.34;65.30;102158.72;4908980;28;96778;-51
2022/10/03 05:48:27;;;;;;;3.67;0.90;;;;;;;13.32;65.28;102157.69;4907725;28;97139;-51
2022/10/03 05:51:14;;;;;;;8.47;1.33;;;;;;;13.32;65.58;102160.44;4909022;28;97168;-51
2022/10/03 05:53:55;;;;;;;2.13;1.03;;;;;;;13.32;65.46;102160.44;4913038;28;97302;-50
2022/10/03 05:56:20;;;;;;;2.97;0.90;;;;;;;13.32;65.38;102168.72;4909657;28;101665;-51
2022/10/03 05:59:23;;;;;;;2.17;1.00;;;;;;;13.33;65.60;102173.78;4905302;28;97124;-51
2022/10/03 06:02:00;;;;;;;5.00;1.40;;;;;;;13.33;65.51;102171.00;4905875;28;98223;-51
2022/10/03 06:04:43;;;;;;;8.13;1.00;;;;;;;13.38;65.51;102175.91;4908611;28;103232;-51
2022/10/03 06:07:11;;;;;;;3.13;0.90;;;;;;;13.43;65.50;102166.19;4909466;28;101801;-48
2022/10/03 06:10:03;;;;;;;18.73;1.80;;;;;;;13.48;65.69;102177.31;4913490;28;97373;-51
2022/10/03 06:12:43;;;;;;;2.63;1.03;;;;;;;13.50;65.54;102183.13;4912295;28;96927;-51
2022/10/03 06:15:24;;;;;;;3.43;1.20;;;;;;;13.56;65.51;102185.25;4910576;28;103146;-52
2022/10/03 06:18:08;;;;;;;5.43;0.80;;;;;;;13.58;65.59;102183.53;4908852;28;97360;-51
2022/10/03 06:21:00;;;;;;;2.90;1.00;;;;;;;13.61;65.91;102199.16;4911451;28;97601;-51
2022/10/03 06:23:47;;;;;;;2.53;0.90;;;;;;;13.66;65.30;102192.97;4911696;28;97292;-51
2022/10/03 06:26:50;;;;;;;7.60;1.00;;;;;;;13.66;65.75;102194.97;4910011;28;101663;-51
2022/10/03 06:29:34;;;;;;;6.30;1.73;;;;;;;13.68;65.51;102201.56;4910263;28;101555;-51
2022/10/03 06:32:32;;;;;;;1.60;1.03;;;;;;;13.71;65.47;102202.63;4910080;28;97389;-50
2022/10/03 06:35:10;;;;;;;3.80;0.90;;;;;;;13.73;65.65;102194.59;4909917;28;96960;-51
2022/10/03 06:38:08;;;;;;;8.17;1.13;;;;;;;13.74;65.73;102198.91;4908675;28;97880;-51
2022/10/03 06:40:54;;;;;;;3.80;0.60;;;;;;;13.76;65.54;102210.25;4909746;28;102538;-50
2022/10/03 06:43:38;;;;;;;3.50;0.70;;;;;;;13.79;65.79;102212.06;4909538;28;97250;-51
2022/10/03 06:46:06;;;;;;;2.00;0.60;;;;;;;13.85;65.62;102218.44;4908344;28;97099;-50
2022/10/03 06:48:57;;;;;;;3.83;1.10;;;;;;;13.88;65.93;102209.19;4909704;28;102298;-52
2022/10/03 06:52:00;;;;;;;3.17;1.10;;;;;;;13.93;65.97;102216.84;4908461;28;100467;-51
2022/10/03 06:55:07;;;;;;;1.90;1.20;;;;;;;13.98;65.83;102210.63;4911338;28;96858;-50
2022/10/03 06:57:49;;;;;;;4.50;1.40;;;;;;;14.04;65.99;102203.19;4871554;28;97021;-51
2022/10/03 07:00:26;;;;;;;7.10;1.40;;;;;;;14.11;65.52;102206.31;4909078;28;102829;-51
2022/10/03 07:03:03;;;;;;;5.90;1.07;;;;;;;14.15;65.60;102211.69;4907704;28;100174;-50
2022/10/03 07:05:56;;;;;;;9.13;1.10;;;;;;;14.17;65.69;102212.72;4907900;28;98730;-51
2022/10/03 07:08:52;;;;;;;8.13;1.40;;;;;;;14.22;65.78;102214.81;4906765;28;96991;-51
2022/10/03 07:11:41;;;;;;;2.33;1.00;;;;;;;14.23;65.94;102210.03;4910378;28;101845;-51
2022/10/03 07:14:14;;;;;;;4.57;1.40;;;;;;;14.28;65.72;102212.13;4911221;28;100120;-48
2022/10/03 07:16:59;;;;;;;6.77;1.07;;;;;;;14.32;65.93;102215.50;4910900;28;97091;-51
2022/10/03 07:19:52;;;;;;;1.93;1.10;;;;;;;14.36;65.75;102213.28;4912497;28;97271;-51
2022/10/03 07:22:21;;;;;;;7.20;1.07;;;;;;;14.38;65.70;102205.25;4907970;28;101238;-51
2022/10/03 07:25:04;;;;;;;7.67;0.87;;;;;;;14.39;65.96;102212.34;4912432;28;96963;-50
2022/10/03 07:27:49;;;;;;;4.50;1.20;;;;;;;14.43;66.15;102212.91;4908019;28;97099;-50
2022/10/03 07:30:23;;;;;;;3.33;1.07;;;;;;;14.48;65.89;102214.22;4910094;28;97013;-51
2022/10/03 07:32:57;;;;;;;4.93;1.27;;;;;;;14.51;65.97;102216.78;4910214;28;98833;-49
2022/10/03 07:39:17;;;;;;;6.10;1.10;;;;;;;14.56;66.61;102229.97;4910699;28;97170;-51
2022/10/03 07:42:26;;;;;;;5.23;0.80;;;;;;;14.60;66.44;102229.75;4850286;28;97171;-49
2022/10/03 07:45:10;;;;;;;3.03;1.30;;;;;;;14.63;66.56;102226.78;4837334;28;101856;-49
2022/10/03 07:47:50;;;;;;;2.37;0.93;;;;;;;14.68;66.13;102228.84;4907331;28;101455;-51
2022/10/03 07:50:43;;;;;;;11.13;1.13;;;;;;;14.75;66.41;102239.53;4909171;28;101142;-50
2022/10/03 07:53:46;;;;;;;7.37;1.17;;;;;;;14.83;66.45;102245.47;4909098;28;97011;-50
2022/10/03 07:56:18;;;;;;;2.47;1.73;;;;;;;14.89;66.02;102243.53;4906692;28;100401;-50
2022/10/03 07:58:56;;;;;;;7.87;1.03;;;;;;;14.97;66.13;102239.84;4907691;28;96962;-50
2022/10/03 08:01:41;;;;;;;1.53;0.73;;;;;;;15.06;65.99;102243.72;4907080;28;97316;-50
2022/10/03 08:04:41;;;;;;;4.30;1.20;;;;;;;15.15;66.10;102243.59;4908824;28;98996;-50
2022/10/03 08:07:25;;;;;;;6.50;1.60;;;;;;;15.25;65.79;102247.75;4902036;28;100554;-49
2022/10/03 08:10:08;;;;;;;5.60;1.33;;;;;;;15.35;65.76;102249.13;4908662;28;101656;-50
2022/10/03 08:12:46;;;;;;;5.03;0.73;;;;;;;15.43;65.81;102242.69;4908544;28;97258;-50
2022/10/03 08:15:44;;;;;;;7.77;1.00;;;;;;;15.53;65.73;102246.84;4909511;28;96820;-49
2022/10/03 08:18:21;;;;;;;4.10;1.17;;;;;;;15.63;65.53;102256.56;4898706;28;103356;-50
2022/10/03 08:20:47;;;;;;;6.80;1.13;;;;;;;15.74;65.55;102251.13;4905464;28;97061;-50
2022/10/03 08:23:45;;;;;;;2.73;0.93;;;;;;;15.88;65.45;102249.47;4908115;28;96802;-49
2022/10/03 08:26:42;;;;;;;6.13;1.00;;;;;;;16.05;65.50;102253.19;4909977;28;102453;-49
2022/10/03 08:29:36;;;;;;;3.97;0.90;;;;;;;16.16;65.32;102247.69;4902167;28;101365;-49
2022/10/03 08:32:39;;;;;;;2.73;1.27;;;;;;;16.24;65.03;102248.03;4908986;28;100216;-49
2022/10/03 08:35:07;;;;;;;2.93;1.10;;;;;;;16.29;65.10;102250.81;4904639;28;98272;-50
2022/10/03 08:37:32;;;;;;;4.07;1.27;;;;;;;16.33;64.87;102261.72;4909697;28;97179;-50
2022/10/03 08:40:35;;;;;;;10.43;1.30;;;;;;;16.37;65.04;102262.25;4902390;28;97497;-50
2022/10/03 08:43:28;;;;;;;7.20;1.30;;;;;;;16.42;65.08;102273.41;4909119;28;100104;-49
2022/10/03 08:46:07;;;;;;;9.83;1.47;;;;;;;16.47;64.97;102269.91;4909612;28;97610;-49
2022/10/03 08:48:38;;;;;;;5.80;1.13;;;;;;;16.52;64.82;102264.91;4907124;28;97158;-48
2022/10/03 08:51:39;;;;;;;5.00;0.87;;;;;;;16.53;64.84;102266.44;4902925;28;97462;-52
2022/10/03 08:54:42;;;;;;;2.70;1.10;;;;;;;16.58;64.98;102274.81;4905026;28;102751;-50
2022/10/03 08:57:26;;;;;;;8.73;1.57;;;;;;;16.67;64.90;102279.41;4906343;28;97444;-50
2022/10/03 09:00:07;;;;;;;4.20;1.53;;;;;;;16.86;64.74;102272.22;4902826;28;97258;-49
2022/10/03 09:03:13;;;;;;;6.27;1.10;;;;;;;16.98;64.70;102277.34;4902266;28;100354;-50
2022/10/03 09:06:18;;;;;;;3.30;0.90;;;;;;;17.02;64.59;102277.88;4906218;28;102643;-50
2022/10/03 09:09:21;;;;;;;4.40;1.07;;;;;;;17.03;64.70;102278.66;4890990;28;96932;-50
2022/10/03 09:12:35;;;;;;;3.83;1.37;;;;;;;17.02;64.49;102285.44;4910107;28;97937;-50
2022/10/03 09:15:28;;;;;;;5.80;1.03;;;;;;;17.01;64.58;102290.28;4889103;28;102021;-50
2022/10/03 09:18:31;;;;;;;3.93;1.53;;;;;;;16.95;64.62;102294.28;4907635;28;102193;-50
2022/10/03 09:21:25;;;;;;;12.87;1.90;;;;;;;16.82;64.89;102308.59;4908468;28;97376;-50
2022/10/03 09:24:14;;;;;;;3.67;1.53;;;;;;;16.74;65.24;102301.97;4902557;28;97168;-50
2022/10/03 09:26:57;;;;;;;3.17;1.40;;;;;;;16.72;65.35;102290.59;4905069;28;102780;-50
2022/10/03 09:29:43;;;;;;;5.53;1.70;;;;;;;16.79;65.71;102297.72;4907700;28;102380;-50
2022/10/03 09:32:39;;;;;;;3.57;1.27;;;;;;;16.88;65.80;102286.41;4905784;28;97172;-50
2022/10/03 09:35:26;;;;;;;13.33;2.40;;;;;;;16.98;65.41;102282.16;4905598;28;96948;-55
2022/10/03 09:38:07;;;;;;;5.20;1.57;;;;;;;17.08;65.49;102286.25;4904188;28;97672;-52
2022/10/03 09:40:44;;;;;;;7.90;1.20;;;;;;;17.22;65.39;102290.88;4912027;28;100252;-51
2022/10/03 09:43:37;;;;;;;1.40;0.87;;;;;;;17.32;65.10;102291.44;4912351;28;97136;-51
2022/10/03 09:46:36;;;;;;;2.40;0.73;;;;;;;17.31;64.44;102287.88;4912292;28;97850;-49
2022/10/03 09:49:46;;;;;;;5.00;0.80;;;;;;;17.28;64.73;102294.44;4910702;28;102027;-49
2022/10/03 09:52:39;;;;;;;5.23;1.10;;;;;;;17.29;64.62;102293.19;4910541;28;101732;-52
2022/10/03 09:55:24;;;;;;;4.63;1.03;;;;;;;17.36;64.62;102289.94;4911193;28;97801;-49
2022/10/03 09:58:18;;;;;;;4.63;1.20;;;;;;;17.47;64.72;102278.84;4904777;28;96691;-50
2022/10/03 10:00:46;;;;;;;8.43;1.07;;;;;;;17.57;64.68;102271.03;4909299;28;101839;-53
2022/10/03 10:03:44;;;;;;;4.43;1.40;;;;;;;17.64;63.91;102276.13;4912971;28;96887;-53
2022/10/03 10:06:14;;;;;;;3.03;1.10;;;;;;;17.72;64.46;102280.69;4911520;28;97132;-50
2022/10/03 10:09:10;;;;;;;4.73;1.37;;;;;;;17.85;64.32;102285.78;4904355;28;97321;-51
2022/10/03 10:11:41;;;;;;;3.43;1.20;;;;;;;17.83;64.05;102285.53;4907249;28;102138;-51
2022/10/03 10:14:32;;;;;;;4.67;0.83;;;;;;;17.83;63.54;102286.28;4907053;28;97794;-51
2022/10/03 10:17:06;;;;;;;4.90;1.23;;;;;;;17.87;64.04;102288.81;4903601;28;97254;-49
2022/10/03 10:19:50;;;;;;;3.37;1.20;;;;;;;17.93;63.38;102284.03;4906666;28;96883;-50
2022/10/03 10:22:18;;;;;;;4.13;1.07;;;;;;;17.97;63.81;102274.16;4910466;28;103044;-49
2022/10/03 10:25:13;;;;;;;7.63;1.43;;;;;;;18.09;63.60;102279.72;4912508;28;96876;-51
2022/10/03 10:28:05;;;;;;;4.50;0.90;;;;;;;18.16;63.05;102276.44;4890902;28;96957;-50
2022/10/03 10:30:33;;;;;;;4.03;1.23;;;;;;;18.27;63.28;102280.00;4909986;28;96854;-51
2022/10/03 10:33:42;;;;;;;5.53;1.27;;;;;;;18.37;62.62;102274.94;4905445;28;97760;-49
2022/10/03 10:36:38;;;;;;;5.00;1.10;;;;;;;18.45;62.35;102267.63;4901065;28;100129;-49
2022/10/03 10:39:41;;;;;;;5.23;1.00;;;;;;;18.51;62.76;102274.69;4909381;28;97762;-53
2022/10/03 10:42:22;;;;;;;3.63;1.13;;;;;;;18.56;62.75;102262.78;4911881;28;98701;-50
2022/10/03 10:45:13;;;;;;;3.90;1.00;;;;;;;18.62;61.85;102262.78;4910072;28;97552;-51
2022/10/03 10:47:56;;;;;;;3.60;0.80;;;;;;;18.67;62.38;102268.31;4907476;28;105348;-49
2022/10/03 10:50:30;;;;;;;1.70;0.80;;;;;;;18.65;62.57;102270.88;4908872;28;97235;-49
2022/10/03 10:53:08;;;;;;;5.03;1.33;;;;;;;18.63;62.05;102267.09;4906092;28;97439;-49
2022/10/03 10:55:52;;;;;;;2.57;0.70;;;;;;;18.62;61.54;102276.72;4906348;28;97215;-51
2022/10/03 10:58:36;;;;;;;4.87;1.20;;;;;;;18.62;61.82;102266.34;4906354;28;102054;-49
2022/10/03 11:01:36;;;;;;;3.50;1.10;;;;;;;18.67;62.14;102270.38;4910587;28;97126;-49
2022/10/03 11:04:40;;;;;;;3.30;0.97;;;;;;;18.71;62.22;102270.88;4911327;28;97012;-49
2022/10/03 11:07:45;;;;;;;1.20;0.60;;;;;;;18.67;61.64;102267.59;4879369;28;100595;-51
2022/10/03 11:10:33;;;;;;;4.90;0.97;;;;;;;18.67;61.48;102265.53;4907177;28;100078;-51
2022/10/03 11:13:49;;;;;;;4.33;0.93;;;;;;;18.67;61.43;102264.81;4910962;28;97059;-54
2022/10/03 11:16:33;;;;;;;3.93;0.80;;;;;;;18.69;62.10;102265.81;4909671;28;96921;-50
2022/10/03 11:19:17;;;;;;;5.17;1.17;;;;;;;18.71;61.02;102268.09;4901714;28;101948;-50
2022/10/03 11:21:42;;;;;;;2.60;0.80;;;;;;;18.69;61.76;102267.84;4905577;28;101463;-50
2022/10/03 11:24:18;;;;;;;2.03;1.00;;;;;;;18.64;61.93;102265.81;4911576;28;97155;-51
2022/10/03 11:26:55;;;;;;;1.80;0.97;;;;;;;18.62;61.85;102271.13;4908036;28;97095;-49
2022/10/03 11:29:43;;;;;;;3.93;0.77;;;;;;;18.64;61.23;102265.81;4906134;28;97269;-49
2022/10/03 11:32:18;;;;;;;6.07;1.17;;;;;;;18.64;61.37;102271.38;4911100;28;102278;-49
2022/10/03 11:35:06;;;;;;;1.57;0.77;;;;;;;18.67;61.68;102273.91;4910158;28;97148;-49
2022/10/03 11:37:40;;;;;;;3.70;0.93;;;;;;;18.75;61.52;102267.81;4906551;28;97437;-49
2022/10/03 11:40:36;;;;;;;2.00;0.60;;;;;;;18.79;61.00;102262.72;4902577;28;96992;-50
2022/10/03 11:43:41;;;;;;;1.17;0.60;;;;;;;18.89;60.92;102269.56;4905619;28;101626;-48
2022/10/03 11:46:06;;;;;;;3.50;0.70;;;;;;;19.00;61.41;102253.53;4902830;28;97265;-51
2022/10/03 11:48:38;;;;;;;2.63;0.77;;;;;;;19.12;60.99;102257.06;4906602;28;97052;-51
2022/10/03 11:51:17;;;;;;;2.10;0.80;;;;;;;19.17;61.06;102245.88;4908058;28;97343;-49
2022/10/03 11:54:01;;;;;;;4.87;0.87;;;;;;;19.25;60.89;102244.06;4908040;28;97609;-50
2022/10/03 11:56:39;;;;;;;3.53;1.03;;;;;;;19.31;60.77;102244.03;4908915;28;96873;-49
2022/10/03 11:59:32;;;;;;;5.63;0.80;;;;;;;19.30;59.75;102245.31;4910390;28;97314;-50
2022/10/03 12:02:32;;;;;;;3.07;1.47;;;;;;;19.28;59.89;102248.63;4904934;28;102983;-50
2022/10/03 12:05:14;;;;;;;2.47;0.70;;;;;;;19.21;60.48;102245.59;4907747;28;102970;-49
2022/10/03 12:10:59;;;;;;;2.47;0.87;;;;;;;19.30;60.60;102243.28;4909939;28;97322;-49
2022/10/03 12:14:09;;;;;;;2.93;0.93;;;;;;;19.47;59.37;102248.81;4907665;28;101644;-49
2022/10/03 12:17:04;;;;;;;3.97;0.60;;;;;;;19.61;58.87;102238.56;4906375;28;100154;-51
2022/10/03 12:20:02;;;;;;;5.30;0.90;;;;;;;19.71;58.81;102237.75;4905692;28;96803;-49
2022/10/03 12:22:41;;;;;;;3.17;0.70;;;;;;;19.74;58.11;102239.50;4909498;28;97294;-49
2022/10/03 12:25:19;;;;;;;3.80;0.70;;;;;;;19.68;58.50;102244.34;4911137;28;101082;-50
2022/10/03 12:28:02;;;;;;;4.83;0.83;;;;;;;19.67;58.85;102242.84;4906631;28;98029;-48
2022/10/03 12:30:43;;;;;;;4.80;1.20;;;;;;;19.67;58.92;102237.25;4904951;28;96880;-51
2022/10/03 12:33:41;;;;;;;2.30;0.90;;;;;;;19.67;58.73;102237.25;4908710;28;96967;-50
2022/10/03 12:36:26;;;;;;;0.90;0.70;;;;;;;19.65;58.64;102233.47;4905706;28;102530;-50
2022/10/03 12:39:03;;;;;;;2.90;1.17;;;;;;;19.64;59.06;102231.94;4905700;28;101601;-49
2022/10/03 12:42:13;;;;;;;4.53;0.77;;;;;;;19.76;58.74;102236.94;4908354;28;96865;-50
2022/10/03 12:45:01;;;;;;;6.03;1.10;;;;;;;19.96;57.99;102233.00;4903565;28;97469;-51
2022/10/03 12:47:54;;;;;;;1.40;0.77;;;;;;;20.07;58.09;102230.13;4907971;28;100627;-48
2022/10/03 12:51:00;;;;;;;3.10;0.90;;;;;;;20.48;57.63;102230.78;4907297;28;100559;-49
2022/10/03 12:53:31;;;;;;;3.20;0.60;;;;;;;20.89;56.51;102234.16;4908061;28;97028;-51
2022/10/03 12:56:25;;;;;;;0.90;0.50;;;;;;;21.09;56.30;102232.16;4909167;28;97386;-49
2022/10/03 12:59:13;;;;;;;1.53;1.07;;;;;;;21.22;57.17;102226.63;4905187;28;101970;-50
2022/10/03 13:02:00;;;;;;;0.93;0.60;;;;;;;21.44;56.34;102235.50;4906957;28;100175;-49